sensor_id;sensor_type;location;lat;lon;timestamp;temperature;humidity
24382;DHT22;12502;50.678;7.172;2022-08-07T00:01:00;15.00;99.90
24382;DHT22;12502;50.678;7.172;2022-08-07T00:06:22;15.00;99.90
24382;DHT22;12502;50.678;7.172;2022-08-07T00:11:34;14.80;99.90
24382;DHT22;12502;50.678;7.172;2022-08-07T00:16:48;14.80;99.90
24382;DHT22;12502;50.678;7.172;2022-08-07T00:21:50;14.70;99.90
24382;DHT22;12502;50.678;7.172;2022-08-07T00:27:02;14.60;99.90
24382;DHT22;12502;50.678;7.172;2022-08-07T00:32:08;14.60;99.90
24382;DHT22;12502;50.678;7.172;2022-08-07T00:37:15;14.50;99.90
24382;DHT22;12502;50.678;7.172;2022-08-07T00:42:17;14.40;99.90
24382;DHT22;12502;50.678;7.172;2022-08-07T00:47:29;14.30;99.90
24382;DHT22;12502;50.678;7.172;2022-08-07T00:52:51;14.30;99.90
24382;DHT22;12502;50.678;7.172;2022-08-07T00:57:53;14.20;99.90
24382;DHT22;12502;50.678;7.172;2022-08-07T01:02:56;14.10;99.90
24382;DHT22;12502;50.678;7.172;2022-08-07T01:07:58;14.10;99.90
24382;DHT22;12502;50.678;7.172;2022-08-07T01:13:00;14.00;99.90
24382;DHT22;12502;50.678;7.172;2022-08-07T01:18:03;14.00;99.90
24382;DHT22;12502;50.678;7.172;2022-08-07T01:23:10;13.90;99.90
24382;DHT22;12502;50.678;7.172;2022-08-07T01:28:14;13.90;99.90
24382;DHT22;12502;50.678;7.172;2022-08-07T01:33:15;13.80;99.90
24382;DHT22;12502;50.678;7.172;2022-08-07T01:38:18;13.70;99.90
24382;DHT22;12502;50.678;7.172;2022-08-07T01:43:28;13.70;99.90
24382;DHT22;12502;50.678;7.172;2022-08-07T01:48:43;13.70;99.90
24382;DHT22;12502;50.678;7.172;2022-08-07T01:53:59;13.50;99.90
24382;DHT22;12502;50.678;7.172;2022-08-07T01:59:18;13.50;99.90
24382;DHT22;12502;50.678;7.172;2022-08-07T02:04:36;13.40;99.90
24382;DHT22;12502;50.678;7.172;2022-08-07T02:09:41;13.40;99.90
24382;DHT22;12502;50.678;7.172;2022-08-07T02:14:55;13.30;99.90
24382;DHT22;12502;50.678;7.172;2022-08-07T02:20:00;13.30;99.90
24382;DHT22;12502;50.678;7.172;2022-08-07T02:25:09;13.20;99.90
24382;DHT22;12502;50.678;7.172;2022-08-07T02:30:18;13.20;99.90
24382;DHT22;12502;50.678;7.172;2022-08-07T02:35:20;13.10;99.90
24382;DHT22;12502;50.678;7.172;2022-08-07T02:40:43;13.10;99.90
24382;DHT22;12502;50.678;7.172;2022-08-07T02:45:48;13.00;99.90
24382;DHT22;12502;50.678;7.172;2022-08-07T02:51:10;12.90;99.90
24382;DHT22;12502;50.678;7.172;2022-08-07T02:56:35;12.90;99.90
24382;DHT22;12502;50.678;7.172;2022-08-07T03:01:40;12.80;99.90
24382;DHT22;12502;50.678;7.172;2022-08-07T03:06:48;12.70;99.90
24382;DHT22;12502;50.678;7.172;2022-08-07T03:11:51;12.70;99.90
24382;DHT22;12502;50.678;7.172;2022-08-07T03:17:04;12.60;99.90
24382;DHT22;12502;50.678;7.172;2022-08-07T03:22:09;12.60;99.90
24382;DHT22;12502;50.678;7.172;2022-08-07T03:27:20;12.50;99.90
24382;DHT22;12502;50.678;7.172;2022-08-07T03:32:39;12.50;99.90
24382;DHT22;12502;50.678;7.172;2022-08-07T03:38:02;12.40;99.90
24382;DHT22;12502;50.678;7.172;2022-08-07T03:43:05;12.40;99.90
24382;DHT22;12502;50.678;7.172;2022-08-07T03:48:15;12.40;99.90
24382;DHT22;12502;50.678;7.172;2022-08-07T03:53:16;12.20;99.90
24382;DHT22;12502;50.678;7.172;2022-08-07T03:58:21;12.20;99.90
24382;DHT22;12502;50.678;7.172;2022-08-07T04:03:43;12.10;99.90
24382;DHT22;12502;50.678;7.172;2022-08-07T04:08:56;12.10;99.90
24382;DHT22;12502;50.678;7.172;2022-08-07T04:14:00;12.00;99.90
24382;DHT22;12502;50.678;7.172;2022-08-07T04:19:22;12.00;99.90
24382;DHT22;12502;50.678;7.172;2022-08-07T04:24:47;12.00;99.90
24382;DHT22;12502;50.678;7.172;2022-08-07T04:29:50;11.90;99.90
24382;DHT22;12502;50.678;7.172;2022-08-07T04:35:05;11.90;99.90
24382;DHT22;12502;50.678;7.172;2022-08-07T04:40:12;11.80;99.90
24382;DHT22;12502;50.678;7.172;2022-08-07T04:45:15;11.80;99.90
24382;DHT22;12502;50.678;7.172;2022-08-07T04:50:46;11.80;99.90
24382;DHT22;12502;50.678;7.172;2022-08-07T05:02:04;11.80;99.90
24382;DHT22;12502;50.678;7.172;2022-08-07T05:07:22;11.80;99.90
24382;DHT22;12502;50.678;7.172;2022-08-07T05:12:59;11.90;99.90
24382;DHT22;12502;50.678;7.172;2022-08-07T05:18:33;12.00;99.90
24382;DHT22;12502;50.678;7.172;2022-08-07T05:23:40;12.00;99.90
24382;DHT22;12502;50.678;7.172;2022-08-07T05:28:43;12.10;99.90
24382;DHT22;12502;50.678;7.172;2022-08-07T05:33:51;12.20;99.90
24382;DHT22;12502;50.678;7.172;2022-08-07T05:39:06;12.40;99.90
24382;DHT22;12502;50.678;7.172;2022-08-07T05:44:33;12.50;99.90
24382;DHT22;12502;50.678;7.172;2022-08-07T05:49:36;12.70;99.90
24382;DHT22;12502;50.678;7.172;2022-08-07T05:54:41;12.80;99.90
24382;DHT22;12502;50.678;7.172;2022-08-07T05:59:55;12.80;99.90
24382;DHT22;12502;50.678;7.172;2022-08-07T06:05:00;12.90;99.90
24382;DHT22;12502;50.678;7.172;2022-08-07T06:10:04;13.00;99.90
24382;DHT22;12502;50.678;7.172;2022-08-07T06:15:16;13.10;99.90
24382;DHT22;12502;50.678;7.172;2022-08-07T06:20:21;13.20;99.90
24382;DHT22;12502;50.678;7.172;2022-08-07T06:25:35;13.30;99.90
24382;DHT22;12502;50.678;7.172;2022-08-07T06:30:38;13.40;99.90
24382;DHT22;12502;50.678;7.172;2022-08-07T06:35:46;13.50;99.90
24382;DHT22;12502;50.678;7.172;2022-08-07T06:41:32;13.70;99.90
24382;DHT22;12502;50.678;7.172;2022-08-07T06:46:56;13.80;99.90
24382;DHT22;12502;50.678;7.172;2022-08-07T06:52:16;13.90;99.90
24382;DHT22;12502;50.678;7.172;2022-08-07T06:57:33;14.10;99.90
24382;DHT22;12502;50.678;7.172;2022-08-07T07:02:52;14.30;99.90
24382;DHT22;12502;50.678;7.172;2022-08-07T07:07:58;14.40;99.90
24382;DHT22;12502;50.678;7.172;2022-08-07T07:13:17;14.60;99.90
24382;DHT22;12502;50.678;7.172;2022-08-07T07:18:43;14.80;99.90
24382;DHT22;12502;50.678;7.172;2022-08-07T07:23:49;15.00;99.90
24382;DHT22;12502;50.678;7.172;2022-08-07T07:29:12;15.20;99.90
24382;DHT22;12502;50.678;7.172;2022-08-07T07:34:38;15.40;99.90
24382;DHT22;12502;50.678;7.172;2022-08-07T07:39:44;15.60;99.90
24382;DHT22;12502;50.678;7.172;2022-08-07T07:44:58;15.70;99.90
24382;DHT22;12502;50.678;7.172;2022-08-07T07:50:00;15.90;99.90
24382;DHT22;12502;50.678;7.172;2022-08-07T07:55:24;16.20;99.90
24382;DHT22;12502;50.678;7.172;2022-08-07T08:00:39;16.30;99.90
24382;DHT22;12502;50.678;7.172;2022-08-07T08:05:46;16.50;99.90
24382;DHT22;12502;50.678;7.172;2022-08-07T08:10:56;16.70;99.90
24382;DHT22;12502;50.678;7.172;2022-08-07T08:16:00;17.00;99.90
24382;DHT22;12502;50.678;7.172;2022-08-07T08:21:04;17.10;99.90
24382;DHT22;12502;50.678;7.172;2022-08-07T08:26:08;17.30;99.90
24382;DHT22;12502;50.678;7.172;2022-08-07T08:31:32;17.50;99.90
24382;DHT22;12502;50.678;7.172;2022-08-07T08:36:57;17.80;99.90
24382;DHT22;12502;50.678;7.172;2022-08-07T08:42:03;18.00;99.90
24382;DHT22;12502;50.678;7.172;2022-08-07T08:47:16;18.50;99.90
24382;DHT22;12502;50.678;7.172;2022-08-07T08:52:29;18.70;99.90
24382;DHT22;12502;50.678;7.172;2022-08-07T08:57:48;18.90;99.90
24382;DHT22;12502;50.678;7.172;2022-08-07T09:03:11;19.10;99.90
24382;DHT22;12502;50.678;7.172;2022-08-07T09:13:53;19.60;99.90
24382;DHT22;12502;50.678;7.172;2022-08-07T09:19:11;19.80;99.90
24382;DHT22;12502;50.678;7.172;2022-08-07T09:41:08;20.60;99.90
24382;DHT22;12502;50.678;7.172;2022-08-07T09:46:37;20.60;99.90
24382;DHT22;12502;50.678;7.172;2022-08-07T10:19:49;21.60;97.20
24382;DHT22;12502;50.678;7.172;2022-08-07T10:25:37;21.70;97.80
24382;DHT22;12502;50.678;7.172;2022-08-07T10:36:25;22.00;95.30
24382;DHT22;12502;50.678;7.172;2022-08-07T10:41:37;22.00;93.70
24382;DHT22;12502;50.678;7.172;2022-08-07T11:09:44;22.50;91.90
24382;DHT22;12502;50.678;7.172;2022-08-07T11:15:12;22.60;90.40
24382;DHT22;12502;50.678;7.172;2022-08-07T11:20:23;22.80;91.40
24382;DHT22;12502;50.678;7.172;2022-08-07T11:36:31;23.30;90.00
24382;DHT22;12502;50.678;7.172;2022-08-07T12:00:01;23.80;85.70
24382;DHT22;12502;50.678;7.172;2022-08-07T12:11:05;24.10;83.80
24382;DHT22;12502;50.678;7.172;2022-08-07T12:16:35;24.30;83.40
24382;DHT22;12502;50.678;7.172;2022-08-07T12:27:21;24.50;81.20
24382;DHT22;12502;50.678;7.172;2022-08-07T12:32:52;24.60;81.40
24382;DHT22;12502;50.678;7.172;2022-08-07T12:37:55;24.60;79.70
24382;DHT22;12502;50.678;7.172;2022-08-07T12:43:21;24.60;79.30
24382;DHT22;12502;50.678;7.172;2022-08-07T12:49:16;24.60;79.80
24382;DHT22;12502;50.678;7.172;2022-08-07T12:54:58;24.70;78.60
24382;DHT22;12502;50.678;7.172;2022-08-07T13:00:07;24.80;78.20
24382;DHT22;12502;50.678;7.172;2022-08-07T13:05:55;24.90;79.70
24382;DHT22;12502;50.678;7.172;2022-08-07T13:11:21;25.10;79.30
24382;DHT22;12502;50.678;7.172;2022-08-07T13:16:39;25.20;78.20
24382;DHT22;12502;50.678;7.172;2022-08-07T13:22:04;25.20;77.10
24382;DHT22;12502;50.678;7.172;2022-08-07T13:27:41;25.20;77.80
24382;DHT22;12502;50.678;7.172;2022-08-07T13:33:06;25.40;77.20
24382;DHT22;12502;50.678;7.172;2022-08-07T13:38:33;25.50;76.80
24382;DHT22;12502;50.678;7.172;2022-08-07T13:43:43;25.60;75.90
24382;DHT22;12502;50.678;7.172;2022-08-07T13:48:59;25.60;76.30
24382;DHT22;12502;50.678;7.172;2022-08-07T13:54:08;25.70;75.20
24382;DHT22;12502;50.678;7.172;2022-08-07T13:59:25;25.90;75.90
24382;DHT22;12502;50.678;7.172;2022-08-07T14:04:28;26.00;75.00
24382;DHT22;12502;50.678;7.172;2022-08-07T14:09:39;26.20;75.80
24382;DHT22;12502;50.678;7.172;2022-08-07T14:15:07;26.20;73.30
24382;DHT22;12502;50.678;7.172;2022-08-07T14:20:22;26.00;74.00
24382;DHT22;12502;50.678;7.172;2022-08-07T14:25:46;26.10;73.50
24382;DHT22;12502;50.678;7.172;2022-08-07T14:30:55;26.20;73.80
24382;DHT22;12502;50.678;7.172;2022-08-07T14:35:58;26.10;73.60
24382;DHT22;12502;50.678;7.172;2022-08-07T14:41:09;26.30;74.10
24382;DHT22;12502;50.678;7.172;2022-08-07T14:46:17;26.50;74.40
24382;DHT22;12502;50.678;7.172;2022-08-07T14:51:31;26.50;73.60
24382;DHT22;12502;50.678;7.172;2022-08-07T14:56:55;26.30;73.70
24382;DHT22;12502;50.678;7.172;2022-08-07T15:02:14;26.40;73.20
24382;DHT22;12502;50.678;7.172;2022-08-07T15:07:34;26.40;73.40
24382;DHT22;12502;50.678;7.172;2022-08-07T15:12:58;26.40;73.20
24382;DHT22;12502;50.678;7.172;2022-08-07T15:18:06;26.40;72.80
24382;DHT22;12502;50.678;7.172;2022-08-07T15:23:31;26.30;73.00
24382;DHT22;12502;50.678;7.172;2022-08-07T15:28:56;26.20;72.80
24382;DHT22;12502;50.678;7.172;2022-08-07T15:34:19;26.30;72.90
24382;DHT22;12502;50.678;7.172;2022-08-07T15:39:26;26.30;72.70
24382;DHT22;12502;50.678;7.172;2022-08-07T15:44:50;26.30;73.10
24382;DHT22;12502;50.678;7.172;2022-08-07T15:50:14;26.40;72.80
24382;DHT22;12502;50.678;7.172;2022-08-07T15:55:42;26.40;71.20
24382;DHT22;12502;50.678;7.172;2022-08-07T16:01:06;26.30;69.90
24382;DHT22;12502;50.678;7.172;2022-08-07T16:06:13;26.20;70.60
24382;DHT22;12502;50.678;7.172;2022-08-07T16:11:43;26.20;71.10
24382;DHT22;12502;50.678;7.172;2022-08-07T16:34:37;26.10;71.40
24382;DHT22;12502;50.678;7.172;2022-08-07T16:51:11;25.90;71.20
24382;DHT22;12502;50.678;7.172;2022-08-07T17:07:45;25.60;70.50
24382;DHT22;12502;50.678;7.172;2022-08-07T17:18:36;25.50;71.80
24382;DHT22;12502;50.678;7.172;2022-08-07T17:40:55;25.30;70.80
24382;DHT22;12502;50.678;7.172;2022-08-07T17:51:49;25.20;72.00
24382;DHT22;12502;50.678;7.172;2022-08-07T17:57:32;25.10;74.20
24382;DHT22;12502;50.678;7.172;2022-08-07T18:03:02;25.00;75.40
24382;DHT22;12502;50.678;7.172;2022-08-07T18:08:14;24.90;75.90
24382;DHT22;12502;50.678;7.172;2022-08-07T18:18:55;24.70;76.80
24382;DHT22;12502;50.678;7.172;2022-08-07T18:24:46;24.60;78.10
24382;DHT22;12502;50.678;7.172;2022-08-07T18:30:12;24.50;77.80
24382;DHT22;12502;50.678;7.172;2022-08-07T18:35:55;24.40;78.80
24382;DHT22;12502;50.678;7.172;2022-08-07T18:46:17;24.20;79.20
24382;DHT22;12502;50.678;7.172;2022-08-07T18:51:38;24.00;79.10
24382;DHT22;12502;50.678;7.172;2022-08-07T19:19:01;23.40;80.40
24382;DHT22;12502;50.678;7.172;2022-08-07T19:24:09;23.30;80.90
24382;DHT22;12502;50.678;7.172;2022-08-07T19:29:36;23.10;81.20
24382;DHT22;12502;50.678;7.172;2022-08-07T19:35:03;23.00;81.20
24382;DHT22;12502;50.678;7.172;2022-08-07T19:40:09;22.90;81.60
24382;DHT22;12502;50.678;7.172;2022-08-07T19:45:17;22.80;82.20
24382;DHT22;12502;50.678;7.172;2022-08-07T19:50:43;22.70;83.80
24382;DHT22;12502;50.678;7.172;2022-08-07T19:55:54;22.60;85.90
24382;DHT22;12502;50.678;7.172;2022-08-07T20:00:59;22.40;85.80
24382;DHT22;12502;50.678;7.172;2022-08-07T20:06:04;22.20;86.50
24382;DHT22;12502;50.678;7.172;2022-08-07T20:11:16;22.00;87.40
24382;DHT22;12502;50.678;7.172;2022-08-07T20:16:44;21.90;87.70
24382;DHT22;12502;50.678;7.172;2022-08-07T20:21:56;21.80;88.50
24382;DHT22;12502;50.678;7.172;2022-08-07T20:27:04;21.60;89.00
24382;DHT22;12502;50.678;7.172;2022-08-07T20:32:08;21.50;89.50
24382;DHT22;12502;50.678;7.172;2022-08-07T20:37:37;21.30;89.20
24382;DHT22;12502;50.678;7.172;2022-08-07T20:43:00;21.20;90.10
24382;DHT22;12502;50.678;7.172;2022-08-07T20:48:03;21.00;90.20
24382;DHT22;12502;50.678;7.172;2022-08-07T20:53:10;20.90;90.60
24382;DHT22;12502;50.678;7.172;2022-08-07T20:58:16;20.80;90.50
24382;DHT22;12502;50.678;7.172;2022-08-07T21:03:28;20.60;90.90
24382;DHT22;12502;50.678;7.172;2022-08-07T21:08:34;20.50;91.10
24382;DHT22;12502;50.678;7.172;2022-08-07T21:13:51;20.40;91.90
24382;DHT22;12502;50.678;7.172;2022-08-07T21:19:13;20.20;92.20
24382;DHT22;12502;50.678;7.172;2022-08-07T21:35:12;19.90;93.90
24382;DHT22;12502;50.678;7.172;2022-08-07T21:40:44;19.80;94.10
24382;DHT22;12502;50.678;7.172;2022-08-07T21:46:00;19.70;94.60
24382;DHT22;12502;50.678;7.172;2022-08-07T21:57:01;19.50;95.90
24382;DHT22;12502;50.678;7.172;2022-08-07T22:02:05;19.40;96.20
24382;DHT22;12502;50.678;7.172;2022-08-07T22:07:19;19.20;97.00
24382;DHT22;12502;50.678;7.172;2022-08-07T22:17:54;19.10;97.90
24382;DHT22;12502;50.678;7.172;2022-08-07T22:23:35;19.00;98.40
24382;DHT22;12502;50.678;7.172;2022-08-07T22:33:56;18.80;99.60
24382;DHT22;12502;50.678;7.172;2022-08-07T22:39:08;18.70;99.90
24382;DHT22;12502;50.678;7.172;2022-08-07T22:44:15;18.60;99.90
24382;DHT22;12502;50.678;7.172;2022-08-07T22:55:18;18.40;99.90
24382;DHT22;12502;50.678;7.172;2022-08-07T23:17:48;17.90;99.90
24382;DHT22;12502;50.678;7.172;2022-08-07T23:34:08;17.70;99.90
24382;DHT22;12502;50.678;7.172;2022-08-07T23:40:02;17.60;99.90
24382;DHT22;12502;50.678;7.172;2022-08-07T23:51:31;17.30;99.90
24382;DHT22;12502;50.678;7.172;2022-08-07T23:57:05;17.20;99.90
